Indianapolis, Indiana
Traffic Map
Current Weather Conditions
Indianapolis, Indiana
Scattered Clouds
Scattered Clouds
13°
Feels Like: 13°
Wind Chill: 13° Ceiling: Unl
Heat Index: 13° Visibility: 10mi
Dew Point: Wind: 15mph
Humidity: 45% Direction: 350° (N)
Pressure: 29.9in Gusts: 21mph
Raw Report DataKIND 261854Z 35013G18KT 10SM SCT047 13/02 A2990 RMK AO2 SLP127 T01330017
Traffic Incident Summary
Active as of:
Severity:
Category:
InformationThere was an issue retrieving the traffic information for this location. Please try a different location or try again shortly.
Advertisements
Track Severe Weather on mobile